Time;durP1;ratioP1;P1;durP2;ratioP2;P2;SDS_P1;SDS_P2;PMS_P1;PMS_P2;Temp;Humidity;BMP_temperature;BMP_pressure;BME280_temperature;BME280_humidity;BME280_pressure;Samples;Min_cycle;Max_cycle;Signal;HPM_P1;HPM_P2
2022/08/07 00:00:53;;;;;;;17.23;12.98;;;;;;;15.53;100.00;97097.78;5017687;28;20375;-65
2022/08/07 00:03:19;;;;;;;21.33;15.30;;;;;;;15.62;100.00;97095.44;5025631;28;20505;-63
2022/08/07 00:05:44;;;;;;;19.60;14.52;;;;;;;15.59;100.00;97096.22;5017360;28;20045;-64
2022/08/07 00:08:10;;;;;;;18.85;14.27;;;;;;;15.60;100.00;97100.56;5015772;28;20039;-63
2022/08/07 00:10:36;;;;;;;21.40;15.43;;;;;;;15.65;100.00;97097.44;5020167;28;20319;-63
2022/08/07 00:13:04;;;;;;;20.42;15.35;;;;;;;15.74;100.00;97094.31;5002944;28;20045;-65
2022/08/07 00:15:31;;;;;;;24.13;14.40;;;;;;;15.76;100.00;97097.47;5002434;28;20128;-64
2022/08/07 00:17:57;;;;;;;17.65;13.77;;;;;;;15.78;100.00;97086.84;5012846;28;20136;-64
2022/08/07 00:20:23;;;;;;;19.05;14.68;;;;;;;15.77;100.00;97088.00;5016920;28;20548;-65
2022/08/07 00:22:49;;;;;;;18.13;14.55;;;;;;;15.65;100.00;97083.63;5033092;28;20406;-66
2022/08/07 00:25:15;;;;;;;18.67;14.07;;;;;;;15.68;100.00;97091.09;5016596;28;20048;-64
2022/08/07 00:27:40;;;;;;;21.98;14.75;;;;;;;15.64;100.00;97085.56;5000357;28;20033;-64
2022/08/07 00:30:06;;;;;;;23.60;15.35;;;;;;;15.66;100.00;97080.47;5015236;28;20045;-65
2022/08/07 00:32:32;;;;;;;19.85;13.82;;;;;;;15.59;100.00;97083.22;5020371;28;20041;-65
2022/08/07 00:34:57;;;;;;;17.45;14.85;;;;;;;15.65;100.00;97067.84;5020775;28;20487;-63
2022/08/07 00:37:24;;;;;;;22.77;16.17;;;;;;;15.63;100.00;97064.69;5015839;28;20206;-64
2022/08/07 00:39:52;;;;;;;18.38;14.73;;;;;;;15.70;100.00;97063.91;5010605;28;20047;-64
2022/08/07 00:42:19;;;;;;;18.92;14.60;;;;;;;15.71;100.00;97057.19;5014053;28;20072;-65
2022/08/07 00:44:44;;;;;;;19.42;15.52;;;;;;;15.79;100.00;97058.03;5017143;28;20448;-64
2022/08/07 00:47:10;;;;;;;21.38;15.23;;;;;;;15.81;100.00;97053.69;5015624;28;20037;-64
2022/08/07 00:49:35;;;;;;;21.73;16.40;;;;;;;15.74;100.00;97056.44;5020687;28;20041;-64
2022/08/07 00:52:05;;;;;;;20.15;15.48;;;;;;;15.79;100.00;97056.06;5018954;28;20521;-64
2022/08/07 00:54:31;;;;;;;22.38;16.13;;;;;;;15.79;100.00;97046.97;5016475;28;20045;-64
2022/08/07 00:56:57;;;;;;;20.55;15.32;;;;;;;15.71;100.00;97037.09;5018171;28;20589;-63
2022/08/07 00:59:22;;;;;;;19.70;15.10;;;;;;;15.73;100.00;97032.75;5013686;28;20092;-63
2022/08/07 01:01:49;;;;;;;19.73;16.08;;;;;;;15.78;100.00;97037.91;5017288;28;20383;-65
2022/08/07 01:04:16;;;;;;;19.00;14.98;;;;;;;15.73;100.00;97032.75;5012216;28;20136;-62
2022/08/07 01:06:43;;;;;;;21.08;15.75;;;;;;;15.67;100.00;97032.34;5015571;28;20034;-63
2022/08/07 01:09:08;;;;;;;19.92;15.18;;;;;;;15.70;100.00;97027.22;5013512;28;20413;-64
2022/08/07 01:11:34;;;;;;;20.23;15.20;;;;;;;15.75;100.00;97033.16;5017894;28;20029;-64
2022/08/07 01:14:00;;;;;;;20.95;16.45;;;;;;;15.75;100.00;97022.13;5018618;28;20056;-66
2022/08/07 01:16:27;;;;;;;24.10;16.10;;;;;;;15.74;100.00;97020.56;5011611;28;20047;-66
2022/08/07 01:18:53;;;;;;;23.83;17.83;;;;;;;15.71;100.00;97015.00;5020942;28;20068;-65
2022/08/07 01:21:20;;;;;;;20.42;15.38;;;;;;;15.75;100.00;97013.06;5022202;28;20038;-64
2022/08/07 01:23:46;;;;;;;21.70;15.88;;;;;;;15.67;100.00;97012.22;5020016;28;20072;-65
2022/08/07 01:26:14;;;;;;;21.45;16.05;;;;;;;15.66;100.00;97002.34;5013615;28;20458;-63
2022/08/07 01:28:44;;;;;;;20.73;15.80;;;;;;;15.71;100.00;97003.94;5000093;28;20041;-63
2022/08/07 01:31:10;;;;;;;19.75;15.13;;;;;;;15.67;100.00;97003.94;4995929;28;20154;-64
2022/08/07 01:33:36;;;;;;;20.70;15.98;;;;;;;15.77;100.00;97008.72;5018469;28;20105;-63
2022/08/07 01:36:03;;;;;;;20.58;15.43;;;;;;;15.77;100.00;97005.16;5017134;28;20045;-64
2022/08/07 01:38:30;;;;;;;21.33;14.98;;;;;;;15.78;100.00;97001.22;4983266;28;20045;-64
2022/08/07 01:40:58;;;;;;;22.73;15.65;;;;;;;15.81;100.00;97000.41;5018723;28;20053;-64
2022/08/07 01:43:25;;;;;;;20.88;15.20;;;;;;;15.85;100.00;97002.00;4985234;28;20606;-64
2022/08/07 01:45:52;;;;;;;18.65;15.52;;;;;;;15.84;100.00;96996.88;5017556;28;20063;-63
2022/08/07 01:48:18;;;;;;;20.25;14.38;;;;;;;15.85;100.00;96995.72;5015794;28;20446;-64
2022/08/07 01:50:48;;;;;;;19.80;15.63;;;;;;;15.80;100.00;96999.63;5030298;28;20109;-64
2022/08/07 01:53:18;;;;;;;22.23;16.02;;;;;;;15.80;100.00;96998.84;5025963;28;20041;-64
2022/08/07 01:55:49;;;;;;;20.25;15.98;;;;;;;15.86;100.00;97000.03;5023498;28;20049;-64
2022/08/07 01:58:18;;;;;;;18.42;15.77;;;;;;;15.81;100.00;97000.41;5015081;28;20490;-63
2022/08/07 02:00:48;;;;;;;22.80;16.67;;;;;;;15.75;100.00;97002.00;5022101;28;20492;-64
2022/08/07 02:03:17;;;;;;;22.08;17.48;;;;;;;15.72;100.00;97002.75;5016526;28;20057;-64
2022/08/07 02:05:48;;;;;;;23.95;17.92;;;;;;;15.67;100.00;96995.66;5001263;28;20521;-64
2022/08/07 02:08:18;;;;;;;22.48;17.38;;;;;;;15.65;100.00;97007.09;5015352;28;20091;-64
2022/08/07 02:10:47;;;;;;;25.23;18.83;;;;;;;15.63;100.00;97003.16;5021901;28;20084;-64
2022/08/07 02:13:15;;;;;;;23.90;17.67;;;;;;;15.60;100.00;96999.19;4999309;28;20041;-64
2022/08/07 02:15:42;;;;;;;25.55;18.88;;;;;;;15.58;100.00;96987.75;5025300;28;20633;-64
2022/08/07 02:18:12;;;;;;;30.40;19.80;;;;;;;15.57;100.00;96997.22;5011634;28;20068;-64
2022/08/07 02:20:38;;;;;;;26.90;19.00;;;;;;;15.53;100.00;96993.66;5018612;28;20056;-64
2022/08/07 02:23:06;;;;;;;25.42;18.48;;;;;;;15.53;100.00;96990.91;4997398;28;20686;-65
2022/08/07 02:25:35;;;;;;;26.83;20.70;;;;;;;15.46;100.00;96991.69;5020551;28;20127;-65
2022/08/07 02:28:01;;;;;;;28.00;20.15;;;;;;;15.47;100.00;96996.03;5020718;28;20044;-65
2022/08/07 02:30:29;;;;;;;29.70;21.35;;;;;;;15.47;100.00;96998.00;5020638;28;20448;-65
2022/08/07 02:32:56;;;;;;;29.10;20.42;;;;;;;15.52;100.00;96996.81;5022804;28;20513;-62
2022/08/07 02:35:23;;;;;;;31.45;20.48;;;;;;;15.45;100.00;96994.84;5017224;28;20103;-64
2022/08/07 02:37:50;;;;;;;25.42;20.23;;;;;;;15.54;100.00;96997.22;5023343;28;20037;-63
2022/08/07 02:40:16;;;;;;;27.42;21.67;;;;;;;15.54;100.00;96991.69;5017700;28;20045;-63
2022/08/07 02:42:43;;;;;;;27.48;20.83;;;;;;;15.50;100.00;96988.91;5022163;28;20041;-65
2022/08/07 02:45:12;;;;;;;29.42;21.92;;;;;;;15.49;100.00;96992.88;5009539;28;20513;-65
2022/08/07 02:47:38;;;;;;;26.87;21.00;;;;;;;15.52;100.00;96986.59;5022140;28;20041;-64
2022/08/07 02:50:05;;;;;;;28.33;20.13;;;;;;;15.53;100.00;96979.09;5016903;28;20284;-65
2022/08/07 02:52:43;;;;;;;29.20;19.83;;;;;;;15.53;100.00;96987.38;5022340;28;20056;-65
2022/08/07 02:55:18;;;;;;;31.13;21.50;;;;;;;15.48;100.00;96958.16;5016063;28;20521;-65
2022/08/07 02:57:46;;;;;;;29.17;21.90;;;;;;;15.49;100.00;96976.31;5011670;28;20041;-65
2022/08/07 03:00:12;;;;;;;30.05;21.33;;;;;;;15.38;100.00;96973.53;5017230;28;20069;-66
2022/08/07 03:02:45;;;;;;;30.40;22.50;;;;;;;15.44;100.00;96980.25;5023135;28;20069;-65
2022/08/07 03:05:12;;;;;;;30.27;21.35;;;;;;;15.44;100.00;96973.94;4999277;28;20038;-65
2022/08/07 03:07:39;;;;;;;30.52;21.45;;;;;;;15.46;100.00;96969.59;5021063;28;20422;-65
2022/08/07 03:10:06;;;;;;;30.50;22.45;;;;;;;15.43;100.00;96962.13;5016737;28;20061;-64
2022/08/07 03:12:33;;;;;;;30.83;21.60;;;;;;;15.45;100.00;96975.53;5021677;28;20049;-65
2022/08/07 03:15:00;;;;;;;27.30;20.60;;;;;;;15.45;100.00;96979.06;5021836;28;20071;-66
2022/08/07 03:17:26;;;;;;;28.88;20.13;;;;;;;15.43;100.00;96975.91;5015984;28;20042;-65
2022/08/07 03:19:52;;;;;;;29.33;20.70;;;;;;;15.37;100.00;96960.13;5010882;28;20051;-65
2022/08/07 03:22:19;;;;;;;27.05;20.77;;;;;;;15.37;100.00;96974.72;5016919;28;20073;-65
2022/08/07 03:24:46;;;;;;;30.65;21.25;;;;;;;15.35;100.00;96968.00;5002548;28;20053;-66
2022/08/07 03:27:13;;;;;;;29.17;21.85;;;;;;;15.29;100.00;96973.91;5016527;28;20564;-66
2022/08/07 03:29:44;;;;;;;28.35;22.17;;;;;;;15.27;100.00;96976.28;5018882;28;20461;-65
2022/08/07 03:32:11;;;;;;;27.33;20.95;;;;;;;15.31;100.00;96978.25;5016398;28;20537;-65
2022/08/07 03:34:39;;;;;;;28.95;20.88;;;;;;;15.28;100.00;96977.06;5003795;28;20711;-66
2022/08/07 03:37:08;;;;;;;26.70;20.80;;;;;;;15.29;100.00;96973.91;4997437;28;20045;-64
2022/08/07 03:39:34;;;;;;;27.73;20.52;;;;;;;15.21;100.00;96983.34;5020499;28;20433;-64
2022/08/07 03:42:03;;;;;;;27.80;21.08;;;;;;;15.21;100.00;96980.59;5012143;28;20083;-64
2022/08/07 03:44:29;;;;;;;32.42;23.05;;;;;;;15.23;100.00;96969.97;5017707;28;20041;-64
2022/08/07 03:46:55;;;;;;;28.35;21.08;;;;;;;15.22;100.00;96968.38;5020990;28;20062;-64
2022/08/07 03:49:21;;;;;;;29.90;20.85;;;;;;;15.20;100.00;96976.25;5013856;28;20254;-65
2022/08/07 03:51:47;;;;;;;29.23;21.02;;;;;;;15.23;100.00;96967.22;5022044;28;20042;-65
2022/08/07 03:54:13;;;;;;;27.30;20.55;;;;;;;15.19;100.00;96976.66;5017243;28;20041;-65
2022/08/07 03:56:39;;;;;;;29.05;21.65;;;;;;;15.21;100.00;96971.53;4999809;28;20108;-66
2022/08/07 03:59:05;;;;;;;28.98;21.25;;;;;;;15.21;100.00;96969.53;5016189;28;20049;-66
2022/08/07 04:01:33;;;;;;;27.58;20.90;;;;;;;15.21;100.00;96952.22;5017721;28;20045;-66
2022/08/07 04:03:59;;;;;;;31.20;20.25;;;;;;;15.22;100.00;96959.31;5021901;28;20045;-66
2022/08/07 04:06:24;;;;;;;30.33;20.98;;;;;;;15.20;100.00;96964.44;5016594;28;20033;-66
2022/08/07 04:08:51;;;;;;;27.85;21.05;;;;;;;15.19;100.00;96951.81;5020580;28;20065;-64
2022/08/07 04:11:17;;;;;;;26.90;20.80;;;;;;;15.19;100.00;96960.09;5015285;28;20045;-65
2022/08/07 04:13:45;;;;;;;31.30;20.75;;;;;;;15.26;100.00;96960.09;5020566;28;20484;-64
2022/08/07 04:16:11;;;;;;;31.77;20.65;;;;;;;15.26;100.00;96966.41;5015381;28;20041;-65
2022/08/07 04:18:37;;;;;;;28.35;20.80;;;;;;;15.32;100.00;96960.50;5021930;28;20594;-65
2022/08/07 04:21:03;;;;;;;29.20;21.27;;;;;;;15.33;100.00;96960.13;5018888;28;20057;-64
2022/08/07 04:23:32;;;;;;;26.23;20.63;;;;;;;15.29;100.00;96954.59;5017101;28;20201;-65
2022/08/07 04:25:58;;;;;;;30.42;20.45;;;;;;;15.32;100.00;96969.56;5011486;28;20038;-64
2022/08/07 04:28:23;;;;;;;27.88;20.38;;;;;;;15.36;100.00;96969.56;5015332;28;20610;-65
2022/08/07 04:30:50;;;;;;;28.40;20.88;;;;;;;15.36;100.00;96975.91;5018832;28;20041;-65
2022/08/07 04:33:17;;;;;;;30.10;20.63;;;;;;;15.35;100.00;96968.00;5014734;28;20076;-64
2022/08/07 04:35:45;;;;;;;27.05;19.35;;;;;;;15.42;100.00;96979.06;5020588;28;20132;-65
2022/08/07 04:38:11;;;;;;;30.83;19.60;;;;;;;15.43;100.00;96967.63;5015642;28;20041;-65
2022/08/07 04:40:40;;;;;;;26.90;18.33;;;;;;;15.43;100.00;96975.91;5020142;28;20743;-63
2022/08/07 04:43:06;;;;;;;25.40;19.50;;;;;;;15.46;100.00;96975.13;5014051;28;20138;-65
2022/08/07 04:45:38;;;;;;;26.85;19.08;;;;;;;15.49;100.00;96982.63;5020360;28;20068;-64
2022/08/07 04:48:11;;;;;;;24.42;18.05;;;;;;;15.55;100.00;96979.47;5016998;28;20746;-64
2022/08/07 04:51:20;;;;;;;27.15;18.67;;;;;;;15.58;100.00;96981.47;5017950;28;20403;-65
2022/08/07 04:53:57;;;;;;;24.08;18.88;;;;;;;15.65;100.00;96985.00;5007944;28;20544;-65
2022/08/07 04:56:28;;;;;;;22.58;17.02;;;;;;;15.76;100.00;96992.56;5006930;28;20049;-65
2022/08/07 04:59:07;;;;;;;24.48;17.27;;;;;;;15.80;100.00;96991.34;5020584;28;20053;-65
2022/08/07 05:02:07;;;;;;;23.00;17.48;;;;;;;15.91;100.00;96998.84;5010964;28;20057;-64
2022/08/07 05:04:41;;;;;;;24.80;16.52;;;;;;;15.99;100.00;97001.22;5018711;28;20124;-65
2022/08/07 05:07:15;;;;;;;22.00;16.08;;;;;;;16.05;100.00;97001.63;5014958;28;20110;-65
2022/08/07 05:09:58;;;;;;;21.73;15.77;;;;;;;16.08;100.00;97005.56;5019123;28;20736;-65
2022/08/07 05:12:36;;;;;;;21.05;15.57;;;;;;;16.17;100.00;97011.47;5014414;28;20056;-66
2022/08/07 05:15:16;;;;;;;18.55;13.93;;;;;;;16.35;100.00;97008.69;5016205;28;20053;-65
2022/08/07 05:17:45;;;;;;;19.75;15.55;;;;;;;16.35;100.00;97003.97;5010987;28;20041;-66
2022/08/07 05:20:13;;;;;;;17.35;13.75;;;;;;;16.44;100.00;97003.56;5017469;28;20317;-66
2022/08/07 05:22:42;;;;;;;19.73;14.80;;;;;;;16.53;100.00;97003.13;5022310;28;20037;-66
2022/08/07 05:25:09;;;;;;;18.55;12.90;;;;;;;16.99;100.00;97014.06;5017786;28;20247;-64
2022/08/07 05:27:36;;;;;;;20.17;13.95;;;;;;;17.08;100.00;97012.88;5023167;28;20041;-65
2022/08/07 05:30:02;;;;;;;23.23;12.10;;;;;;;17.69;100.00;97016.06;5019926;28;20073;-65
2022/08/07 05:32:30;;;;;;;17.35;12.88;;;;;;;17.53;100.00;97008.25;5022915;28;20132;-65
2022/08/07 05:34:57;;;;;;;18.02;12.52;;;;;;;17.63;100.00;97005.81;5019071;28;20990;-65
2022/08/07 05:37:24;;;;;;;17.65;12.65;;;;;;;18.19;100.00;97012.16;5009167;28;20565;-65
2022/08/07 05:39:50;;;;;;;14.73;10.98;;;;;;;19.07;100.00;97014.44;5014049;28;20052;-65
2022/08/07 05:42:16;;;;;;;14.90;12.30;;;;;;;18.07;100.00;97007.91;5019154;28;20033;-64
2022/08/07 05:44:42;;;;;;;15.48;11.38;;;;;;;19.18;100.00;97013.53;5023093;28;20048;-65
2022/08/07 05:47:08;;;;;;;19.00;12.40;;;;;;;18.42;100.00;97005.22;5019181;28;20501;-64
2022/08/07 05:49:34;;;;;;;14.25;11.07;;;;;;;19.00;100.00;97016.53;5022989;28;20038;-65
2022/08/07 05:51:59;;;;;;;14.55;11.38;;;;;;;18.56;100.00;97013.41;5022576;28;20053;-65
2022/08/07 05:54:25;;;;;;;13.85;9.82;;;;;;;18.94;100.00;97023.72;5017888;28;20045;-65
2022/08/07 05:56:54;;;;;;;12.75;10.13;;;;;;;18.78;100.00;97027.84;5023504;28;20041;-65
2022/08/07 05:59:21;;;;;;;14.45;10.23;;;;;;;18.66;100.00;97029.16;5016862;28;20098;-65
2022/08/07 06:01:49;;;;;;;14.38;10.05;;;;;;;18.70;100.00;97038.22;5012730;28;20037;-65
2022/08/07 06:04:16;;;;;;;12.82;9.60;;;;;;;18.85;100.00;97043.63;5017661;28;20490;-65
2022/08/07 06:06:42;;;;;;;12.52;8.85;;;;;;;18.97;100.00;97045.88;5019327;28;20561;-65
2022/08/07 06:09:08;;;;;;;10.45;8.77;;;;;;;18.56;100.00;97045.91;5012744;28;20045;-66
2022/08/07 06:11:35;;;;;;;12.73;9.60;;;;;;;17.79;100.00;97025.53;5023723;28;20038;-65
2022/08/07 06:14:01;;;;;;;15.27;9.27;;;;;;;18.23;100.00;97039.88;5016275;28;20054;-65
2022/08/07 06:16:32;;;;;;;12.65;8.30;;;;;;;18.73;100.00;97042.94;5017018;28;20386;-65
2022/08/07 06:19:02;;;;;;;11.10;7.90;;;;;;;18.84;100.00;97039.31;5023401;28;20042;-65
2022/08/07 06:21:28;;;;;;;14.10;7.63;;;;;;;19.31;100.00;97036.75;5000402;28;20583;-66
2022/08/07 06:23:54;;;;;;;10.90;7.78;;;;;;;19.18;100.00;97027.41;5023470;28;20049;-65
2022/08/07 06:26:20;;;;;;;11.68;7.95;;;;;;;18.60;100.00;97041.91;5016216;28;20041;-65
2022/08/07 06:28:50;;;;;;;11.00;7.15;;;;;;;18.80;100.00;97042.09;5022121;28;20130;-65
2022/08/07 06:31:16;;;;;;;10.20;7.53;;;;;;;18.51;100.00;97047.13;5016441;28;20041;-65
2022/08/07 06:33:43;;;;;;;11.05;7.80;;;;;;;18.22;100.00;97041.03;5022543;28;20183;-64
2022/08/07 06:36:09;;;;;;;10.98;6.93;;;;;;;18.95;100.00;97037.19;5011714;28;20049;-64
2022/08/07 06:38:35;;;;;;;10.75;6.80;;;;;;;19.46;100.00;97040.13;5021079;28;20115;-65
2022/08/07 06:41:03;;;;;;;6.85;5.28;;;;;;;19.58;100.00;97041.56;5022214;28;20498;-65
2022/08/07 06:43:34;;;;;;;9.52;5.80;;;;;;;19.49;100.00;97034.53;5002284;28;20056;-66
2022/08/07 06:46:02;;;;;;;10.48;5.88;;;;;;;18.98;100.00;97033.59;5022487;28;20120;-65
2022/08/07 06:48:27;;;;;;;9.07;6.13;;;;;;;18.84;100.00;97025.44;4975892;28;20046;-66
2022/08/07 06:50:57;;;;;;;9.45;5.40;;;;;;;19.55;100.00;97039.63;5023178;28;20048;-65
2022/08/07 06:53:25;;;;;;;8.20;5.20;;;;;;;20.15;100.00;97045.50;5018458;28;20081;-65
2022/08/07 06:55:53;;;;;;;8.25;5.38;;;;;;;18.82;100.00;97031.38;5022306;28;20043;-65
2022/08/07 06:58:19;;;;;;;8.48;6.10;;;;;;;18.53;100.00;97031.66;5017497;28;20041;-65
2022/08/07 07:00:45;;;;;;;9.23;5.20;;;;;;;19.10;100.00;97033.06;5020229;28;20156;-65
2022/08/07 07:03:12;;;;;;;8.35;5.10;;;;;;;18.94;100.00;97037.59;5017855;28;20129;-66
2022/08/07 07:05:39;;;;;;;8.35;4.80;;;;;;;19.34;100.00;97032.34;5021968;28;20129;-65
2022/08/07 07:08:04;;;;;;;7.97;5.28;;;;;;;18.80;100.00;97035.72;5018194;28;20178;-64
2022/08/07 07:10:32;;;;;;;7.57;5.97;;;;;;;18.90;100.00;97035.66;5014158;28;20061;-64
2022/08/07 07:13:18;;;;;;;8.65;4.85;;;;;;;20.12;100.00;97038.78;5013775;28;20060;-64
2022/08/07 07:15:46;;;;;;;11.05;4.60;;;;;;;19.38;100.00;97042.22;5011734;28;20041;-64
2022/08/07 07:18:24;;;;;;;6.30;4.32;;;;;;;19.64;100.00;97031.53;5017949;28;20045;-66
2022/08/07 07:20:56;;;;;;;9.80;4.32;;;;;;;20.00;100.00;97033.81;5023512;28;20065;-64
2022/08/07 07:23:23;;;;;;;6.70;4.07;;;;;;;20.25;100.00;97036.19;5017301;28;20052;-65
2022/08/07 07:25:53;;;;;;;4.85;3.67;;;;;;;21.50;97.66;97038.66;5022151;28;20034;-66
2022/08/07 07:28:28;;;;;;;6.13;3.63;;;;;;;20.75;100.00;97043.69;5010543;28;20171;-65
2022/08/07 07:31:02;;;;;;;5.20;3.40;;;;;;;20.66;99.83;97032.34;4984903;28;20060;-64
2022/08/07 07:33:31;;;;;;;8.57;3.80;;;;;;;20.30;100.00;97035.72;4999542;28;20066;-65
2022/08/07 07:35:57;;;;;;;5.13;3.70;;;;;;;19.48;100.00;97032.16;5000430;28;20486;-66
2022/08/07 07:38:24;;;;;;;7.00;4.50;;;;;;;19.64;100.00;97028.78;4992693;28;20518;-65
2022/08/07 07:40:57;;;;;;;5.72;3.50;;;;;;;20.55;100.00;97035.28;5012340;28;20128;-64
2022/08/07 07:43:26;;;;;;;8.15;3.90;;;;;;;19.73;100.00;97026.28;5012732;28;20041;-65
2022/08/07 07:45:52;;;;;;;6.47;3.67;;;;;;;19.71;100.00;97025.09;5020769;28;20049;-65
2022/08/07 07:48:21;;;;;;;5.95;3.20;;;;;;;20.16;100.00;97017.28;5017564;28;20049;-65
2022/08/07 07:50:48;;;;;;;7.47;4.27;;;;;;;20.12;100.00;97015.78;5022465;28;20791;-66
2022/08/07 07:53:18;;;;;;;5.28;3.38;;;;;;;21.22;97.10;97026.09;5017307;28;20294;-65
2022/08/07 07:55:43;;;;;;;;;;;;;;;20.51;100.00;97029.00;5018457;28;20097;-66
2022/08/07 07:58:11;;;;;;;9.23;3.38;;;;;;;20.83;100.00;97029.66;5012791;28;19940;-67
2022/08/07 08:00:38;;;;;;;5.05;3.78;;;;;;;20.17;100.00;97031.97;5021948;28;20041;-66
2022/08/07 08:03:10;;;;;;;6.93;3.50;;;;;;;20.16;100.00;97033.19;5018852;28;20038;-66
2022/08/07 08:05:38;;;;;;;8.10;3.67;;;;;;;20.49;98.94;97030.63;5021131;28;20056;-67
2022/08/07 08:08:05;;;;;;;8.63;4.18;;;;;;;19.62;100.00;97036.75;5017274;28;20528;-65
2022/08/07 08:10:31;;;;;;;6.60;3.88;;;;;;;19.63;100.00;97039.09;5001362;28;20056;-66
2022/08/07 08:12:58;;;;;;;9.02;3.33;;;;;;;21.16;96.34;97039.72;5014756;28;20393;-66
2022/08/07 08:15:26;;;;;;;7.20;3.63;;;;;;;19.70;100.00;97040.19;5017210;28;20105;-66
2022/08/07 08:17:53;;;;;;;10.07;3.42;;;;;;;19.95;100.00;97034.28;5022452;28;20053;-66
2022/08/07 08:20:20;;;;;;;6.25;4.03;;;;;;;19.56;100.00;97039.19;4997693;28;20367;-66
2022/08/07 08:28:24;;;;;;;4.38;3.58;;;;;;;19.79;100.00;97024.63;5015743;28;20468;-65
2022/08/07 08:30:55;;;;;;;4.30;3.10;;;;;;;20.45;100.00;97030.69;5021644;28;20041;-66
2022/08/07 08:33:23;;;;;;;5.60;3.75;;;;;;;19.96;100.00;97035.88;5015658;28;20069;-65
2022/08/07 08:35:53;;;;;;;6.13;4.05;;;;;;;19.99;100.00;97032.28;5022131;28;20069;-66
2022/08/07 08:38:24;;;;;;;8.23;3.97;;;;;;;19.97;100.00;97035.47;5014446;28;20041;-66
2022/08/07 08:41:04;;;;;;;5.43;3.13;;;;;;;20.06;100.00;97034.94;5019900;28;20038;-67
2022/08/07 08:43:29;;;;;;;4.38;3.00;;;;;;;20.68;100.00;97037.50;5018378;28;20033;-67
2022/08/07 08:46:00;;;;;;;5.05;3.47;;;;;;;19.77;100.00;97040.13;5006514;28;20049;-67
2022/08/07 08:48:42;;;;;;;6.22;3.20;;;;;;;20.11;100.00;97037.22;5010796;28;20044;-66
2022/08/07 08:51:24;;;;;;;6.88;3.63;;;;;;;19.95;100.00;97037.88;5015779;28;20107;-67
2022/08/07 08:53:55;;;;;;;5.40;3.80;;;;;;;20.14;100.00;97038.38;5019362;28;20052;-66
2022/08/07 08:56:25;;;;;;;5.43;3.60;;;;;;;19.93;100.00;97037.50;5020174;28;20629;-67
2022/08/07 08:59:06;;;;;;;4.07;3.03;;;;;;;19.93;100.00;97034.72;5017001;28;20033;-67
2022/08/07 09:02:03;;;;;;;7.18;3.25;;;;;;;19.63;100.00;97027.22;5023845;28;20052;-66
2022/08/07 09:04:49;;;;;;;7.57;3.72;;;;;;;19.83;100.00;97033.69;5018139;28;20163;-66
2022/08/07 09:07:23;;;;;;;6.72;3.40;;;;;;;19.98;100.00;97033.47;5020283;28;20041;-66
2022/08/07 09:10:00;;;;;;;5.88;3.28;;;;;;;20.33;100.00;97037.66;5019808;28;20033;-66
2022/08/07 09:12:44;;;;;;;4.97;2.92;;;;;;;20.38;100.00;97041.94;5016362;28;20111;-65
2022/08/07 09:15:28;;;;;;;6.00;2.92;;;;;;;20.41;99.95;97038.31;5018334;28;20328;-65
2022/08/07 09:18:45;;;;;;;7.85;2.97;;;;;;;20.81;100.00;97044.78;5018169;28;20042;-66
2022/08/07 09:21:32;;;;;;;4.85;2.80;;;;;;;20.53;94.96;97036.94;4940680;28;20067;-66
2022/08/07 09:24:23;;;;;;;7.10;3.75;;;;;;;20.08;99.10;97040.84;5027201;28;20049;-66
2022/08/07 09:27:02;;;;;;;4.45;2.88;;;;;;;20.57;96.65;97054.34;5009544;28;20045;-67
2022/08/07 09:29:49;;;;;;;4.28;3.20;;;;;;;20.37;97.90;97043.94;5023859;28;20052;-67
2022/08/07 09:32:31;;;;;;;4.60;2.90;;;;;;;20.59;97.83;97043.56;5020473;28;20034;-66
2022/08/07 09:35:04;;;;;;;5.38;2.97;;;;;;;20.69;100.00;97044.59;5008902;28;20038;-67
2022/08/07 09:37:38;;;;;;;3.75;2.65;;;;;;;20.72;97.95;97038.19;5024228;28;20045;-67
2022/08/07 09:40:32;;;;;;;4.90;2.80;;;;;;;20.25;97.08;97031.41;5019407;28;20057;-65
2022/08/07 09:43:16;;;;;;;4.00;2.42;;;;;;;20.11;97.86;97039.22;5001973;28;20132;-66
2022/08/07 09:45:56;;;;;;;5.65;2.88;;;;;;;20.16;97.04;97038.75;5023038;28;20629;-67
2022/08/07 09:48:34;;;;;;;;;;;;;;;19.99;96.85;97041.38;5004898;28;20073;-66
2022/08/07 09:51:02;;;;;;;7.13;2.83;;;;;;;20.37;94.88;97040.38;5016819;28;19913;-66
2022/08/07 09:53:33;;;;;;;4.18;2.80;;;;;;;20.15;97.49;97043.53;5019066;28;20056;-66
2022/08/07 09:56:20;;;;;;;4.85;3.00;;;;;;;20.01;95.75;97040.97;5024461;28;20072;-66
2022/08/07 09:59:07;;;;;;;7.35;2.90;;;;;;;20.22;96.27;97039.81;5028000;28;20114;-66
2022/08/07 10:02:04;;;;;;;5.97;2.85;;;;;;;20.28;96.71;97046.50;5025474;28;20049;-65
2022/08/07 10:04:36;;;;;;;4.22;2.55;;;;;;;20.27;95.01;97036.56;5008758;28;20037;-65
2022/08/07 10:07:31;;;;;;;5.38;2.60;;;;;;;20.60;97.78;97045.94;5022823;28;20057;-65
2022/08/07 10:10:15;;;;;;;4.43;2.60;;;;;;;20.85;93.90;97046.72;5015554;28;20061;-66
2022/08/07 10:12:50;;;;;;;3.95;2.70;;;;;;;21.15;93.09;97042.94;5022440;28;20136;-66
2022/08/07 10:15:42;;;;;;;3.67;2.30;;;;;;;21.02;91.55;97050.38;5017338;28;20033;-66
2022/08/07 10:18:35;;;;;;;11.13;3.85;;;;;;;20.70;93.82;97043.41;4987003;28;20057;-65
2022/08/07 10:21:19;;;;;;;2.38;1.85;;;;;;;20.71;92.57;97039.44;5017287;28;20041;-66
2022/08/07 10:24:08;;;;;;;3.35;2.10;;;;;;;20.61;93.09;97028.03;5023220;28;20494;-66
2022/08/07 10:26:52;;;;;;;;;;;;;;;20.65;92.15;97030.75;5021819;28;20081;-67
2022/08/07 10:29:51;;;;;;;4.00;2.20;;;;;;;20.49;92.04;97030.63;5017873;28;19917;-65
2022/08/07 10:32:26;;;;;;;6.00;2.20;;;;;;;21.32;88.14;97035.41;5017786;28;20490;-65
2022/08/07 10:35:06;;;;;;;3.25;2.00;;;;;;;21.06;88.91;97039.94;5011844;28;20052;-65
2022/08/07 10:37:31;;;;;;;3.13;2.17;;;;;;;21.18;89.80;97031.72;5022215;28;20045;-68
2022/08/07 10:40:13;;;;;;;6.53;2.60;;;;;;;20.86;88.22;97028.81;5017905;28;20122;-65
2022/08/07 10:42:52;;;;;;;3.83;2.38;;;;;;;20.65;89.44;97029.97;5021591;28;20037;-67
2022/08/07 10:45:27;;;;;;;3.70;2.42;;;;;;;20.52;89.41;97013.09;5019082;28;20049;-66
2022/08/07 10:48:00;;;;;;;3.47;2.40;;;;;;;20.60;88.33;97025.69;5022900;28;20466;-67
2022/08/07 10:50:34;;;;;;;3.72;2.30;;;;;;;20.70;88.13;97026.72;5017609;28;20068;-66
2022/08/07 10:53:17;;;;;;;3.28;2.17;;;;;;;20.62;88.25;97031.63;5024576;28;20069;-66
2022/08/07 10:56:09;;;;;;;3.00;2.28;;;;;;;20.65;88.51;97025.19;5014102;28;20547;-66
2022/08/07 10:58:59;;;;;;;5.32;3.92;;;;;;;20.68;87.80;97027.13;5004274;28;20710;-66
2022/08/07 11:01:37;;;;;;;4.03;2.22;;;;;;;20.73;89.63;97023.88;5014704;28;20057;-66
2022/08/07 11:04:24;;;;;;;3.47;1.92;;;;;;;20.79;89.77;97032.50;5021570;28;20080;-66
2022/08/07 11:07:01;;;;;;;3.45;2.17;;;;;;;20.96;87.71;97023.03;5020542;28;20040;-65
2022/08/07 11:09:46;;;;;;;3.55;2.10;;;;;;;21.10;89.54;97027.50;4983819;28;20053;-65
2022/08/07 11:12:21;;;;;;;3.33;2.40;;;;;;;20.97;87.62;97021.03;5010276;28;20045;-65
2022/08/07 11:14:54;;;;;;;6.13;2.10;;;;;;;21.11;86.16;97019.97;5021800;28;20042;-65
2022/08/07 11:17:29;;;;;;;2.83;2.03;;;;;;;21.18;87.27;97015.03;5015096;28;20045;-66
2022/08/07 11:20:05;;;;;;;3.22;2.08;;;;;;;21.41;87.74;97015.34;5015187;28;20088;-67
2022/08/07 11:22:35;;;;;;;4.15;1.90;;;;;;;21.42;86.54;97011.34;5021023;28;20041;-66
2022/08/07 11:25:16;;;;;;;5.43;2.33;;;;;;;21.19;85.49;97015.78;5020706;28;20405;-66
2022/08/07 11:27:47;;;;;;;5.15;1.90;;;;;;;21.25;87.24;97007.72;5003722;28;20072;-66
2022/08/07 11:30:16;;;;;;;5.32;1.83;;;;;;;21.36;87.14;97009.06;5017379;28;20037;-66
2022/08/07 11:33:01;;;;;;;5.05;1.90;;;;;;;21.45;85.63;97005.72;5017873;28;20061;-66
2022/08/07 11:35:32;;;;;;;3.72;1.90;;;;;;;21.12;84.42;97011.19;5013997;28;20045;-66
2022/08/07 11:38:13;;;;;;;5.18;2.10;;;;;;;21.10;85.14;97005.22;5004552;28;20379;-65
2022/08/07 11:40:58;;;;;;;2.80;1.80;;;;;;;21.27;84.27;97006.09;5020644;28;20550;-66
2022/08/07 11:43:27;;;;;;;4.05;2.10;;;;;;;21.07;81.56;97008.09;5017454;28;20458;-65